sensor_id;sensor_type;location;lat;lon;timestamp;P1;durP1;ratioP1;P2;durP2;ratioP2
3959;SDS011;1994;48.640;8.894;2023-07-09T00:01:21;3.93;;;3.33;;
3959;SDS011;1994;48.640;8.894;2023-07-09T00:03:47;3.27;;;2.60;;
3959;SDS011;1994;48.640;8.894;2023-07-09T00:06:16;4.00;;;3.07;;
3959;SDS011;1994;48.640;8.894;2023-07-09T00:08:44;2.70;;;2.50;;
3959;SDS011;1994;48.640;8.894;2023-07-09T00:11:14;3.40;;;3.07;;
3959;SDS011;1994;48.640;8.894;2023-07-09T00:13:41;3.60;;;3.30;;
3959;SDS011;1994;48.640;8.894;2023-07-09T00:16:11;4.90;;;3.00;;
3959;SDS011;1994;48.640;8.894;2023-07-09T00:18:44;4.13;;;2.90;;
3959;SDS011;1994;48.640;8.894;2023-07-09T00:21:10;5.10;;;2.63;;
3959;SDS011;1994;48.640;8.894;2023-07-09T00:23:36;2.60;;;2.40;;
3959;SDS011;1994;48.640;8.894;2023-07-09T00:26:08;3.33;;;3.00;;
3959;SDS011;1994;48.640;8.894;2023-07-09T00:28:38;3.70;;;3.03;;
3959;SDS011;1994;48.640;8.894;2023-07-09T00:31:07;6.43;;;2.50;;
3959;SDS011;1994;48.640;8.894;2023-07-09T00:33:39;3.20;;;2.80;;
3959;SDS011;1994;48.640;8.894;2023-07-09T00:36:16;3.30;;;3.10;;
3959;SDS011;1994;48.640;8.894;2023-07-09T00:38:51;3.13;;;2.83;;
3959;SDS011;1994;48.640;8.894;2023-07-09T00:41:18;3.30;;;2.60;;
3959;SDS011;1994;48.640;8.894;2023-07-09T00:43:47;2.73;;;2.53;;
3959;SDS011;1994;48.640;8.894;2023-07-09T00:51:24;5.07;;;3.13;;
3959;SDS011;1994;48.640;8.894;2023-07-09T00:53:55;4.50;;;3.00;;
3959;SDS011;1994;48.640;8.894;2023-07-09T00:56:33;2.80;;;2.60;;
3959;SDS011;1994;48.640;8.894;2023-07-09T00:59:05;4.97;;;3.00;;
3959;SDS011;1994;48.640;8.894;2023-07-09T01:01:37;3.87;;;3.57;;
3959;SDS011;1994;48.640;8.894;2023-07-09T01:04:06;7.73;;;3.03;;
3959;SDS011;1994;48.640;8.894;2023-07-09T01:06:36;4.50;;;3.10;;
3959;SDS011;1994;48.640;8.894;2023-07-09T01:09:15;3.53;;;3.23;;
3959;SDS011;1994;48.640;8.894;2023-07-09T01:11:41;7.30;;;2.90;;
3959;SDS011;1994;48.640;8.894;2023-07-09T01:14:08;3.63;;;2.97;;
3959;SDS011;1994;48.640;8.894;2023-07-09T01:16:37;3.40;;;3.10;;
3959;SDS011;1994;48.640;8.894;2023-07-09T01:19:08;3.13;;;2.83;;
3959;SDS011;1994;48.640;8.894;2023-07-09T01:21:33;6.83;;;3.03;;
3959;SDS011;1994;48.640;8.894;2023-07-09T01:24:11;3.20;;;2.97;;
3959;SDS011;1994;48.640;8.894;2023-07-09T01:26:39;3.20;;;3.00;;
3959;SDS011;1994;48.640;8.894;2023-07-09T01:29:05;3.00;;;2.80;;
3959;SDS011;1994;48.640;8.894;2023-07-09T01:31:31;5.07;;;3.07;;
3959;SDS011;1994;48.640;8.894;2023-07-09T01:33:57;3.17;;;2.80;;
3959;SDS011;1994;48.640;8.894;2023-07-09T01:36:23;3.37;;;3.17;;
3959;SDS011;1994;48.640;8.894;2023-07-09T01:38:49;3.63;;;3.27;;
3959;SDS011;1994;48.640;8.894;2023-07-09T01:41:18;3.90;;;3.60;;
3959;SDS011;1994;48.640;8.894;2023-07-09T01:43:44;5.77;;;3.80;;
3959;SDS011;1994;48.640;8.894;2023-07-09T01:46:11;8.70;;;5.10;;
3959;SDS011;1994;48.640;8.894;2023-07-09T01:48:40;5.97;;;3.37;;
3959;SDS011;1994;48.640;8.894;2023-07-09T01:51:14;5.80;;;3.80;;
3959;SDS011;1994;48.640;8.894;2023-07-09T01:53:41;3.43;;;3.00;;
3959;SDS011;1994;48.640;8.894;2023-07-09T01:56:09;3.27;;;3.07;;
3959;SDS011;1994;48.640;8.894;2023-07-09T01:58:35;6.07;;;3.80;;
3959;SDS011;1994;48.640;8.894;2023-07-09T02:01:06;3.73;;;3.40;;
3959;SDS011;1994;48.640;8.894;2023-07-09T02:03:33;7.23;;;3.77;;
3959;SDS011;1994;48.640;8.894;2023-07-09T02:05:59;3.30;;;3.00;;
3959;SDS011;1994;48.640;8.894;2023-07-09T02:08:27;3.40;;;3.20;;
3959;SDS011;1994;48.640;8.894;2023-07-09T02:10:53;3.97;;;3.67;;
3959;SDS011;1994;48.640;8.894;2023-07-09T02:13:19;4.13;;;3.33;;
3959;SDS011;1994;48.640;8.894;2023-07-09T02:15:44;2.90;;;2.70;;
3959;SDS011;1994;48.640;8.894;2023-07-09T02:18:11;3.43;;;3.23;;
3959;SDS011;1994;48.640;8.894;2023-07-09T02:20:38;4.07;;;3.20;;
3959;SDS011;1994;48.640;8.894;2023-07-09T02:23:05;3.50;;;3.20;;
3959;SDS011;1994;48.640;8.894;2023-07-09T02:25:34;3.00;;;2.80;;
3959;SDS011;1994;48.640;8.894;2023-07-09T02:28:00;3.30;;;3.00;;
3959;SDS011;1994;48.640;8.894;2023-07-09T02:30:25;4.03;;;3.73;;
3959;SDS011;1994;48.640;8.894;2023-07-09T02:32:51;4.10;;;3.70;;
3959;SDS011;1994;48.640;8.894;2023-07-09T02:35:19;3.60;;;3.30;;
3959;SDS011;1994;48.640;8.894;2023-07-09T02:37:45;3.63;;;3.33;;
3959;SDS011;1994;48.640;8.894;2023-07-09T02:40:11;3.10;;;2.80;;
3959;SDS011;1994;48.640;8.894;2023-07-09T02:42:38;3.33;;;3.03;;
3959;SDS011;1994;48.640;8.894;2023-07-09T02:45:04;4.07;;;3.77;;
3959;SDS011;1994;48.640;8.894;2023-07-09T02:47:31;3.20;;;2.97;;
3959;SDS011;1994;48.640;8.894;2023-07-09T02:49:56;3.07;;;2.87;;
3959;SDS011;1994;48.640;8.894;2023-07-09T02:52:22;3.77;;;3.40;;
3959;SDS011;1994;48.640;8.894;2023-07-09T02:54:48;6.40;;;3.10;;
3959;SDS011;1994;48.640;8.894;2023-07-09T02:57:14;3.57;;;3.27;;
3959;SDS011;1994;48.640;8.894;2023-07-09T02:59:39;3.70;;;3.40;;
3959;SDS011;1994;48.640;8.894;2023-07-09T03:02:05;3.50;;;3.10;;
3959;SDS011;1994;48.640;8.894;2023-07-09T03:04:31;3.60;;;3.23;;
3959;SDS011;1994;48.640;8.894;2023-07-09T03:06:57;3.73;;;3.43;;
3959;SDS011;1994;48.640;8.894;2023-07-09T03:09:24;3.40;;;3.20;;
3959;SDS011;1994;48.640;8.894;2023-07-09T03:11:50;3.60;;;3.30;;
3959;SDS011;1994;48.640;8.894;2023-07-09T03:14:16;3.33;;;3.13;;
3959;SDS011;1994;48.640;8.894;2023-07-09T03:16:42;8.30;;;3.23;;
3959;SDS011;1994;48.640;8.894;2023-07-09T03:19:08;4.00;;;3.60;;
3959;SDS011;1994;48.640;8.894;2023-07-09T03:21:34;3.77;;;3.47;;
3959;SDS011;1994;48.640;8.894;2023-07-09T03:24:00;4.10;;;3.80;;
3959;SDS011;1994;48.640;8.894;2023-07-09T03:26:26;3.73;;;3.30;;
3959;SDS011;1994;48.640;8.894;2023-07-09T03:28:52;4.40;;;3.73;;
3959;SDS011;1994;48.640;8.894;2023-07-09T03:31:18;7.03;;;4.20;;
3959;SDS011;1994;48.640;8.894;2023-07-09T03:33:46;4.73;;;3.80;;
3959;SDS011;1994;48.640;8.894;2023-07-09T03:36:12;6.57;;;4.20;;
3959;SDS011;1994;48.640;8.894;2023-07-09T03:38:39;5.33;;;4.10;;
3959;SDS011;1994;48.640;8.894;2023-07-09T03:41:05;4.17;;;3.63;;
3959;SDS011;1994;48.640;8.894;2023-07-09T03:43:31;3.83;;;3.53;;
3959;SDS011;1994;48.640;8.894;2023-07-09T03:45:57;5.00;;;3.87;;
3959;SDS011;1994;48.640;8.894;2023-07-09T03:48:23;4.27;;;3.90;;
3959;SDS011;1994;48.640;8.894;2023-07-09T03:50:49;8.73;;;4.07;;
3959;SDS011;1994;48.640;8.894;2023-07-09T03:53:15;3.80;;;3.50;;
3959;SDS011;1994;48.640;8.894;2023-07-09T03:55:42;4.00;;;3.27;;
3959;SDS011;1994;48.640;8.894;2023-07-09T03:58:16;4.57;;;3.80;;
3959;SDS011;1994;48.640;8.894;2023-07-09T04:00:42;4.27;;;3.87;;
3959;SDS011;1994;48.640;8.894;2023-07-09T04:03:07;4.13;;;3.83;;
3959;SDS011;1994;48.640;8.894;2023-07-09T04:05:33;5.33;;;3.03;;
3959;SDS011;1994;48.640;8.894;2023-07-09T04:07:59;5.10;;;4.60;;
3959;SDS011;1994;48.640;8.894;2023-07-09T04:10:25;5.60;;;3.93;;
3959;SDS011;1994;48.640;8.894;2023-07-09T04:12:51;3.67;;;3.40;;
3959;SDS011;1994;48.640;8.894;2023-07-09T04:15:16;5.00;;;3.80;;
3959;SDS011;1994;48.640;8.894;2023-07-09T04:17:42;4.43;;;3.70;;
3959;SDS011;1994;48.640;8.894;2023-07-09T04:20:08;7.03;;;3.80;;
3959;SDS011;1994;48.640;8.894;2023-07-09T04:22:35;6.80;;;4.23;;
3959;SDS011;1994;48.640;8.894;2023-07-09T04:25:02;5.50;;;3.87;;
3959;SDS011;1994;48.640;8.894;2023-07-09T04:27:30;3.53;;;3.13;;
3959;SDS011;1994;48.640;8.894;2023-07-09T04:29:56;4.00;;;3.60;;
3959;SDS011;1994;48.640;8.894;2023-07-09T04:32:22;4.10;;;3.50;;
3959;SDS011;1994;48.640;8.894;2023-07-09T04:34:48;4.33;;;3.93;;
3959;SDS011;1994;48.640;8.894;2023-07-09T04:37:14;6.13;;;4.57;;
3959;SDS011;1994;48.640;8.894;2023-07-09T04:39:42;5.00;;;3.90;;
3959;SDS011;1994;48.640;8.894;2023-07-09T04:42:10;3.50;;;3.30;;
3959;SDS011;1994;48.640;8.894;2023-07-09T04:44:39;4.83;;;4.30;;
3959;SDS011;1994;48.640;8.894;2023-07-09T04:47:05;3.67;;;3.47;;
3959;SDS011;1994;48.640;8.894;2023-07-09T04:49:32;5.30;;;4.50;;
3959;SDS011;1994;48.640;8.894;2023-07-09T04:51:57;3.90;;;3.60;;
3959;SDS011;1994;48.640;8.894;2023-07-09T04:54:24;3.87;;;3.50;;
3959;SDS011;1994;48.640;8.894;2023-07-09T04:56:59;4.57;;;4.17;;
3959;SDS011;1994;48.640;8.894;2023-07-09T04:59:25;4.33;;;3.83;;
3959;SDS011;1994;48.640;8.894;2023-07-09T05:01:51;4.20;;;3.80;;
3959;SDS011;1994;48.640;8.894;2023-07-09T05:04:16;3.80;;;3.50;;
3959;SDS011;1994;48.640;8.894;2023-07-09T05:06:42;5.27;;;3.47;;
3959;SDS011;1994;48.640;8.894;2023-07-09T05:09:08;3.93;;;3.63;;
3959;SDS011;1994;48.640;8.894;2023-07-09T05:11:34;8.50;;;4.13;;
3959;SDS011;1994;48.640;8.894;2023-07-09T05:14:02;5.13;;;3.63;;
3959;SDS011;1994;48.640;8.894;2023-07-09T05:16:29;4.50;;;4.07;;
3959;SDS011;1994;48.640;8.894;2023-07-09T05:18:55;4.70;;;4.30;;
3959;SDS011;1994;48.640;8.894;2023-07-09T05:21:20;8.00;;;4.20;;
3959;SDS011;1994;48.640;8.894;2023-07-09T05:23:46;4.70;;;3.80;;
3959;SDS011;1994;48.640;8.894;2023-07-09T05:26:12;4.07;;;3.73;;
3959;SDS011;1994;48.640;8.894;2023-07-09T05:28:38;7.37;;;4.57;;
3959;SDS011;1994;48.640;8.894;2023-07-09T05:31:04;7.53;;;3.90;;
3959;SDS011;1994;48.640;8.894;2023-07-09T05:33:31;4.60;;;4.20;;
3959;SDS011;1994;48.640;8.894;2023-07-09T05:35:57;5.13;;;4.63;;
3959;SDS011;1994;48.640;8.894;2023-07-09T05:38:23;5.47;;;4.40;;
3959;SDS011;1994;48.640;8.894;2023-07-09T05:40:48;4.60;;;4.20;;
3959;SDS011;1994;48.640;8.894;2023-07-09T05:43:26;4.83;;;4.43;;
3959;SDS011;1994;48.640;8.894;2023-07-09T05:45:51;5.17;;;4.17;;
3959;SDS011;1994;48.640;8.894;2023-07-09T05:48:17;5.90;;;4.47;;
3959;SDS011;1994;48.640;8.894;2023-07-09T05:50:43;4.67;;;3.97;;
3959;SDS011;1994;48.640;8.894;2023-07-09T05:53:09;5.10;;;4.07;;
3959;SDS011;1994;48.640;8.894;2023-07-09T05:55:34;5.20;;;3.97;;
3959;SDS011;1994;48.640;8.894;2023-07-09T05:58:00;4.70;;;4.30;;
3959;SDS011;1994;48.640;8.894;2023-07-09T06:00:26;6.00;;;4.40;;
3959;SDS011;1994;48.640;8.894;2023-07-09T06:02:51;4.30;;;4.00;;
3959;SDS011;1994;48.640;8.894;2023-07-09T06:05:17;4.50;;;3.83;;
3959;SDS011;1994;48.640;8.894;2023-07-09T06:07:43;3.53;;;3.23;;
3959;SDS011;1994;48.640;8.894;2023-07-09T06:10:08;12.20;;;4.63;;
3959;SDS011;1994;48.640;8.894;2023-07-09T06:12:35;4.70;;;4.10;;
3959;SDS011;1994;48.640;8.894;2023-07-09T06:15:01;4.20;;;3.80;;
3959;SDS011;1994;48.640;8.894;2023-07-09T06:17:27;9.60;;;4.00;;
3959;SDS011;1994;48.640;8.894;2023-07-09T06:19:53;8.53;;;4.07;;
3959;SDS011;1994;48.640;8.894;2023-07-09T06:22:18;8.00;;;3.50;;
3959;SDS011;1994;48.640;8.894;2023-07-09T06:24:45;3.70;;;3.40;;
3959;SDS011;1994;48.640;8.894;2023-07-09T06:27:10;3.63;;;3.20;;
3959;SDS011;1994;48.640;8.894;2023-07-09T06:29:36;4.53;;;3.77;;
3959;SDS011;1994;48.640;8.894;2023-07-09T06:32:02;4.10;;;3.53;;
3959;SDS011;1994;48.640;8.894;2023-07-09T06:34:29;3.33;;;3.13;;
3959;SDS011;1994;48.640;8.894;2023-07-09T06:36:55;4.30;;;3.80;;
3959;SDS011;1994;48.640;8.894;2023-07-09T06:39:22;4.87;;;3.93;;
3959;SDS011;1994;48.640;8.894;2023-07-09T06:41:48;4.70;;;4.20;;
3959;SDS011;1994;48.640;8.894;2023-07-09T06:44:14;4.20;;;3.90;;
3959;SDS011;1994;48.640;8.894;2023-07-09T06:46:39;5.80;;;4.83;;
3959;SDS011;1994;48.640;8.894;2023-07-09T06:49:05;6.83;;;3.67;;
3959;SDS011;1994;48.640;8.894;2023-07-09T06:51:31;4.20;;;3.80;;
3959;SDS011;1994;48.640;8.894;2023-07-09T06:53:58;4.87;;;3.60;;
3959;SDS011;1994;48.640;8.894;2023-07-09T06:56:24;5.60;;;4.10;;
3959;SDS011;1994;48.640;8.894;2023-07-09T06:58:50;4.70;;;4.30;;
3959;SDS011;1994;48.640;8.894;2023-07-09T07:01:16;4.30;;;3.90;;
3959;SDS011;1994;48.640;8.894;2023-07-09T07:03:41;4.10;;;3.63;;
3959;SDS011;1994;48.640;8.894;2023-07-09T07:06:07;4.67;;;3.80;;
3959;SDS011;1994;48.640;8.894;2023-07-09T07:08:34;4.83;;;3.80;;
3959;SDS011;1994;48.640;8.894;2023-07-09T07:11:00;3.80;;;3.50;;
3959;SDS011;1994;48.640;8.894;2023-07-09T07:13:30;3.93;;;2.93;;
3959;SDS011;1994;48.640;8.894;2023-07-09T07:15:58;3.50;;;2.90;;
3959;SDS011;1994;48.640;8.894;2023-07-09T07:18:24;3.20;;;3.00;;
3959;SDS011;1994;48.640;8.894;2023-07-09T07:20:50;4.10;;;2.80;;
3959;SDS011;1994;48.640;8.894;2023-07-09T07:23:16;8.13;;;3.50;;
3959;SDS011;1994;48.640;8.894;2023-07-09T07:25:44;5.20;;;3.10;;
3959;SDS011;1994;48.640;8.894;2023-07-09T07:28:13;3.60;;;3.30;;
3959;SDS011;1994;48.640;8.894;2023-07-09T07:30:39;4.50;;;3.03;;
3959;SDS011;1994;48.640;8.894;2023-07-09T07:33:05;4.87;;;3.13;;
3959;SDS011;1994;48.640;8.894;2023-07-09T07:35:30;5.03;;;3.20;;
3959;SDS011;1994;48.640;8.894;2023-07-09T07:37:57;4.80;;;2.70;;
3959;SDS011;1994;48.640;8.894;2023-07-09T07:40:22;6.27;;;3.37;;
3959;SDS011;1994;48.640;8.894;2023-07-09T07:42:48;3.20;;;3.00;;
3959;SDS011;1994;48.640;8.894;2023-07-09T07:45:14;3.77;;;2.83;;
3959;SDS011;1994;48.640;8.894;2023-07-09T07:47:40;2.57;;;2.37;;
3959;SDS011;1994;48.640;8.894;2023-07-09T07:50:06;2.80;;;2.50;;
3959;SDS011;1994;48.640;8.894;2023-07-09T07:52:33;3.00;;;2.80;;
3959;SDS011;1994;48.640;8.894;2023-07-09T07:55:02;2.50;;;2.33;;
3959;SDS011;1994;48.640;8.894;2023-07-09T07:57:32;4.10;;;3.53;;
3959;SDS011;1994;48.640;8.894;2023-07-09T07:59:58;2.93;;;2.70;;
3959;SDS011;1994;48.640;8.894;2023-07-09T08:02:24;4.43;;;3.47;;
3959;SDS011;1994;48.640;8.894;2023-07-09T08:04:50;5.23;;;3.77;;
3959;SDS011;1994;48.640;8.894;2023-07-09T08:07:16;3.43;;;3.20;;
3959;SDS011;1994;48.640;8.894;2023-07-09T08:09:43;4.67;;;3.23;;
3959;SDS011;1994;48.640;8.894;2023-07-09T08:12:12;6.33;;;2.73;;
3959;SDS011;1994;48.640;8.894;2023-07-09T08:14:39;3.67;;;3.37;;
3959;SDS011;1994;48.640;8.894;2023-07-09T08:17:07;3.50;;;2.33;;
3959;SDS011;1994;48.640;8.894;2023-07-09T08:19:43;3.20;;;2.90;;
3959;SDS011;1994;48.640;8.894;2023-07-09T08:22:14;4.70;;;2.60;;
3959;SDS011;1994;48.640;8.894;2023-07-09T08:24:41;2.40;;;2.20;;
3959;SDS011;1994;48.640;8.894;2023-07-09T08:27:07;2.37;;;2.17;;
3959;SDS011;1994;48.640;8.894;2023-07-09T08:29:34;2.73;;;2.50;;
3959;SDS011;1994;48.640;8.894;2023-07-09T08:32:00;4.80;;;2.70;;
3959;SDS011;1994;48.640;8.894;2023-07-09T08:34:27;2.60;;;2.50;;
3959;SDS011;1994;48.640;8.894;2023-07-09T08:36:53;3.43;;;3.13;;
3959;SDS011;1994;48.640;8.894;2023-07-09T08:39:19;3.50;;;3.20;;
3959;SDS011;1994;48.640;8.894;2023-07-09T08:41:48;4.00;;;2.90;;
3959;SDS011;1994;48.640;8.894;2023-07-09T08:47:43;3.63;;;2.87;;
3959;SDS011;1994;48.640;8.894;2023-07-09T08:50:21;2.87;;;2.67;;
3959;SDS011;1994;48.640;8.894;2023-07-09T08:53:01;3.10;;;2.90;;
3959;SDS011;1994;48.640;8.894;2023-07-09T08:55:28;3.17;;;2.87;;
3959;SDS011;1994;48.640;8.894;2023-07-09T08:58:00;2.60;;;2.20;;
3959;SDS011;1994;48.640;8.894;2023-07-09T09:00:42;2.57;;;2.43;;
3959;SDS011;1994;48.640;8.894;2023-07-09T09:04:05;3.87;;;3.47;;
3959;SDS011;1994;48.640;8.894;2023-07-09T09:06:44;4.20;;;2.97;;
3959;SDS011;1994;48.640;8.894;2023-07-09T09:09:27;3.00;;;2.43;;
3959;SDS011;1994;48.640;8.894;2023-07-09T09:12:01;2.97;;;2.77;;
3959;SDS011;1994;48.640;8.894;2023-07-09T09:14:41;3.27;;;2.90;;
3959;SDS011;1994;48.640;8.894;2023-07-09T09:17:12;17.53;;;2.90;;
3959;SDS011;1994;48.640;8.894;2023-07-09T09:19:54;2.80;;;2.30;;
3959;SDS011;1994;48.640;8.894;2023-07-09T09:22:24;2.80;;;2.60;;
3959;SDS011;1994;48.640;8.894;2023-07-09T09:25:11;5.93;;;2.80;;
3959;SDS011;1994;48.640;8.894;2023-07-09T09:27:52;3.90;;;2.90;;
3959;SDS011;1994;48.640;8.894;2023-07-09T09:30:19;4.97;;;2.93;;
3959;SDS011;1994;48.640;8.894;2023-07-09T09:32:51;2.80;;;2.60;;
3959;SDS011;1994;48.640;8.894;2023-07-09T09:35:29;2.63;;;2.20;;
3959;SDS011;1994;48.640;8.894;2023-07-09T09:38:12;2.30;;;2.20;;
3959;SDS011;1994;48.640;8.894;2023-07-09T09:40:44;2.27;;;2.10;;
3959;SDS011;1994;48.640;8.894;2023-07-09T09:43:17;2.43;;;2.33;;
3959;SDS011;1994;48.640;8.894;2023-07-09T09:45:47;2.43;;;2.30;;
3959;SDS011;1994;48.640;8.894;2023-07-09T09:48:26;2.87;;;2.50;;
3959;SDS011;1994;48.640;8.894;2023-07-09T09:50:55;2.47;;;2.27;;
3959;SDS011;1994;48.640;8.894;2023-07-09T09:53:25;4.80;;;2.70;;
3959;SDS011;1994;48.640;8.894;2023-07-09T09:55:54;3.23;;;2.40;;
3959;SDS011;1994;48.640;8.894;2023-07-09T09:58:26;3.00;;;2.80;;
3959;SDS011;1994;48.640;8.894;2023-07-09T10:00:55;2.67;;;2.47;;
3959;SDS011;1994;48.640;8.894;2023-07-09T10:03:32;2.23;;;1.90;;
3959;SDS011;1994;48.640;8.894;2023-07-09T10:06:00;2.70;;;2.50;;
3959;SDS011;1994;48.640;8.894;2023-07-09T10:11:31;3.10;;;2.40;;
3959;SDS011;1994;48.640;8.894;2023-07-09T10:16:51;2.83;;;2.27;;
3959;SDS011;1994;48.640;8.894;2023-07-09T10:22:04;2.80;;;2.57;;
3959;SDS011;1994;48.640;8.894;2023-07-09T10:25:10;2.40;;;2.30;;
3959;SDS011;1994;48.640;8.894;2023-07-09T10:28:06;2.90;;;2.70;;
3959;SDS011;1994;48.640;8.894;2023-07-09T10:39:42;2.23;;;2.00;;
3959;SDS011;1994;48.640;8.894;2023-07-09T10:42:27;2.20;;;2.07;;
3959;SDS011;1994;48.640;8.894;2023-07-09T10:45:03;2.23;;;1.80;;
3959;SDS011;1994;48.640;8.894;2023-07-09T10:47:43;2.50;;;2.20;;
3959;SDS011;1994;48.640;8.894;2023-07-09T10:50:31;5.93;;;2.43;;
3959;SDS011;1994;48.640;8.894;2023-07-09T10:53:11;4.53;;;3.27;;
3959;SDS011;1994;48.640;8.894;2023-07-09T10:58:46;2.20;;;2.10;;
3959;SDS011;1994;48.640;8.894;2023-07-09T11:01:35;2.60;;;2.40;;
3959;SDS011;1994;48.640;8.894;2023-07-09T11:04:09;2.93;;;2.63;;
3959;SDS011;1994;48.640;8.894;2023-07-09T11:06:51;7.03;;;2.70;;
3959;SDS011;1994;48.640;8.894;2023-07-09T11:09:31;3.63;;;2.50;;
3959;SDS011;1994;48.640;8.894;2023-07-09T11:12:12;2.58;;;2.30;;
3959;SDS011;1994;48.640;8.894;2023-07-09T11:14:52;4.00;;;3.20;;
3959;SDS011;1994;48.640;8.894;2023-07-09T11:17:24;2.60;;;2.50;;
3959;SDS011;1994;48.640;8.894;2023-07-09T11:19:57;4.07;;;2.28;;
3959;SDS011;1994;48.640;8.894;2023-07-09T11:22:27;2.60;;;2.40;;
3959;SDS011;1994;48.640;8.894;2023-07-09T11:27:49;3.63;;;3.10;;
3959;SDS011;1994;48.640;8.894;2023-07-09T11:30:28;2.60;;;2.40;;
3959;SDS011;1994;48.640;8.894;2023-07-09T11:32:58;2.53;;;2.43;;
3959;SDS011;1994;48.640;8.894;2023-07-09T11:35:28;2.67;;;2.47;;
3959;SDS011;1994;48.640;8.894;2023-07-09T11:38:19;2.93;;;2.70;;
3959;SDS011;1994;48.640;8.894;2023-07-09T11:40:50;3.13;;;2.77;;
3959;SDS011;1994;48.640;8.894;2023-07-09T11:43:46;2.93;;;2.70;;
3959;SDS011;1994;48.640;8.894;2023-07-09T11:46:16;3.17;;;2.83;;
3959;SDS011;1994;48.640;8.894;2023-07-09T11:48:47;3.00;;;2.70;;
3959;SDS011;1994;48.640;8.894;2023-07-09T11:51:23;2.80;;;2.60;;
3959;SDS011;1994;48.640;8.894;2023-07-09T11:54:05;3.90;;;2.70;;
3959;SDS011;1994;48.640;8.894;2023-07-09T11:56:34;6.87;;;3.20;;
3959;SDS011;1994;48.640;8.894;2023-07-09T11:59:00;4.03;;;2.50;;
3959;SDS011;1994;48.640;8.894;2023-07-09T12:01:28;2.80;;;2.60;;
3959;SDS011;1994;48.640;8.894;2023-07-09T12:04:13;3.63;;;3.00;;
3959;SDS011;1994;48.640;8.894;2023-07-09T12:06:41;2.97;;;2.78;;
3959;SDS011;1994;48.640;8.894;2023-07-09T12:09:16;4.05;;;2.85;;
3959;SDS011;1994;48.640;8.894;2023-07-09T12:11:44;4.38;;;2.88;;
3959;SDS011;1994;48.640;8.894;2023-07-09T12:14:17;3.55;;;2.97;;
3959;SDS011;1994;48.640;8.894;2023-07-09T12:16:46;6.07;;;2.75;;
3959;SDS011;1994;48.640;8.894;2023-07-09T12:19:18;3.88;;;2.90;;
3959;SDS011;1994;48.640;8.894;2023-07-09T12:21:47;2.50;;;2.40;;
3959;SDS011;1994;48.640;8.894;2023-07-09T12:24:25;4.50;;;2.47;;
3959;SDS011;1994;48.640;8.894;2023-07-09T12:26:57;3.03;;;2.83;;
3959;SDS011;1994;48.640;8.894;2023-07-09T12:29:25;2.83;;;2.42;;
3959;SDS011;1994;48.640;8.894;2023-07-09T12:31:53;4.70;;;2.47;;
3959;SDS011;1994;48.640;8.894;2023-07-09T12:34:22;2.60;;;2.45;;
3959;SDS011;1994;48.640;8.894;2023-07-09T12:36:49;4.00;;;2.92;;
3959;SDS011;1994;48.640;8.894;2023-07-09T12:39:20;2.42;;;2.33;;
3959;SDS011;1994;48.640;8.894;2023-07-09T12:41:56;3.33;;;3.03;;
3959;SDS011;1994;48.640;8.894;2023-07-09T12:44:25;4.75;;;2.80;;
3959;SDS011;1994;48.640;8.894;2023-07-09T12:46:53;4.07;;;2.88;;
3959;SDS011;1994;48.640;8.894;2023-07-09T12:51:48;3.83;;;3.20;;
3959;SDS011;1994;48.640;8.894;2023-07-09T12:54:15;2.83;;;2.63;;
3959;SDS011;1994;48.640;8.894;2023-07-09T12:56:44;2.72;;;2.53;;
3959;SDS011;1994;48.640;8.894;2023-07-09T12:59:21;1.90;;;1.80;;
3959;SDS011;1994;48.640;8.894;2023-07-09T13:02:15;3.22;;;2.92;;
3959;SDS011;1994;48.640;8.894;2023-07-09T13:04:48;2.88;;;2.67;;
3959;SDS011;1994;48.640;8.894;2023-07-09T13:09:50;3.33;;;2.30;;
3959;SDS011;1994;48.640;8.894;2023-07-09T13:12:18;2.45;;;2.25;;
3959;SDS011;1994;48.640;8.894;2023-07-09T13:14:55;2.40;;;2.20;;
3959;SDS011;1994;48.640;8.894;2023-07-09T13:17:21;2.17;;;2.00;;
3959;SDS011;1994;48.640;8.894;2023-07-09T13:19:47;2.70;;;2.47;;
3959;SDS011;1994;48.640;8.894;2023-07-09T13:22:16;3.35;;;2.83;;
3959;SDS011;1994;48.640;8.894;2023-07-09T13:24:44;5.10;;;2.40;;
3959;SDS011;1994;48.640;8.894;2023-07-09T13:27:14;2.40;;;2.30;;
3959;SDS011;1994;48.640;8.894;2023-07-09T13:29:41;4.50;;;2.45;;
3959;SDS011;1994;48.640;8.894;2023-07-09T13:32:11;2.50;;;2.30;;
3959;SDS011;1994;48.640;8.894;2023-07-09T13:34:39;2.95;;;2.58;;
3959;SDS011;1994;48.640;8.894;2023-07-09T13:37:08;3.38;;;2.70;;
3959;SDS011;1994;48.640;8.894;2023-07-09T13:39:40;2.53;;;2.30;;
3959;SDS011;1994;48.640;8.894;2023-07-09T13:42:17;2.67;;;2.47;;
3959;SDS011;1994;48.640;8.894;2023-07-09T13:44:43;2.33;;;2.22;;
3959;SDS011;1994;48.640;8.894;2023-07-09T13:47:14;2.40;;;2.17;;
3959;SDS011;1994;48.640;8.894;2023-07-09T13:49:43;2.30;;;2.10;;
3959;SDS011;1994;48.640;8.894;2023-07-09T13:52:15;3.38;;;2.70;;
3959;SDS011;1994;48.640;8.894;2023-07-09T13:54:45;4.47;;;2.40;;
3959;SDS011;1994;48.640;8.894;2023-07-09T13:57:19;1.85;;;1.70;;
3959;SDS011;1994;48.640;8.894;2023-07-09T13:59:46;4.40;;;2.10;;
3959;SDS011;1994;48.640;8.894;2023-07-09T14:02:29;4.55;;;2.50;;
3959;SDS011;1994;48.640;8.894;2023-07-09T14:04:57;4.05;;;1.98;;
3959;SDS011;1994;48.640;8.894;2023-07-09T14:07:32;2.42;;;2.22;;
3959;SDS011;1994;48.640;8.894;2023-07-09T14:10:02;2.95;;;2.45;;
3959;SDS011;1994;48.640;8.894;2023-07-09T14:12:32;10.75;;;3.13;;
3959;SDS011;1994;48.640;8.894;2023-07-09T14:15:10;3.40;;;2.30;;
3959;SDS011;1994;48.640;8.894;2023-07-09T14:17:45;2.25;;;2.05;;
3959;SDS011;1994;48.640;8.894;2023-07-09T14:20:15;8.95;;;2.72;;
3959;SDS011;1994;48.640;8.894;2023-07-09T14:22:43;4.18;;;2.50;;
3959;SDS011;1994;48.640;8.894;2023-07-09T14:25:25;2.40;;;2.20;;
3959;SDS011;1994;48.640;8.894;2023-07-09T14:27:53;2.85;;;2.28;;
3959;SDS011;1994;48.640;8.894;2023-07-09T14:30:20;2.40;;;2.20;;
3959;SDS011;1994;48.640;8.894;2023-07-09T14:32:49;3.03;;;2.08;;
3959;SDS011;1994;48.640;8.894;2023-07-09T14:35:17;3.25;;;2.55;;
3959;SDS011;1994;48.640;8.894;2023-07-09T14:37:46;7.63;;;2.67;;
3959;SDS011;1994;48.640;8.894;2023-07-09T14:40:14;2.55;;;2.42;;
3959;SDS011;1994;48.640;8.894;2023-07-09T14:42:45;2.30;;;2.10;;
3959;SDS011;1994;48.640;8.894;2023-07-09T14:45:24;2.60;;;2.00;;
3959;SDS011;1994;48.640;8.894;2023-07-09T14:47:53;5.75;;;2.72;;
3959;SDS011;1994;48.640;8.894;2023-07-09T14:50:19;2.30;;;2.10;;
3959;SDS011;1994;48.640;8.894;2023-07-09T14:52:47;2.83;;;2.30;;
3959;SDS011;1994;48.640;8.894;2023-07-09T14:55:14;2.60;;;2.40;;
3959;SDS011;1994;48.640;8.894;2023-07-09T14:57:41;5.82;;;3.15;;
3959;SDS011;1994;48.640;8.894;2023-07-09T15:00:12;6.03;;;2.50;;
3959;SDS011;1994;48.640;8.894;2023-07-09T15:02:43;6.97;;;2.92;;
3959;SDS011;1994;48.640;8.894;2023-07-09T15:05:18;5.40;;;2.47;;
3959;SDS011;1994;48.640;8.894;2023-07-09T15:07:49;5.30;;;2.25;;
3959;SDS011;1994;48.640;8.894;2023-07-09T15:10:16;3.45;;;2.63;;
3959;SDS011;1994;48.640;8.894;2023-07-09T15:12:48;2.75;;;2.55;;
3959;SDS011;1994;48.640;8.894;2023-07-09T15:15:28;5.55;;;2.85;;
3959;SDS011;1994;48.640;8.894;2023-07-09T15:17:56;4.13;;;2.60;;
3959;SDS011;1994;48.640;8.894;2023-07-09T15:20:26;2.17;;;2.08;;
3959;SDS011;1994;48.640;8.894;2023-07-09T15:22:55;4.20;;;2.35;;
3959;SDS011;1994;48.640;8.894;2023-07-09T15:25:24;2.33;;;2.22;;
3959;SDS011;1994;48.640;8.894;2023-07-09T15:27:53;3.50;;;2.58;;
3959;SDS011;1994;48.640;8.894;2023-07-09T15:30:23;3.53;;;3.10;;
3959;SDS011;1994;48.640;8.894;2023-07-09T15:32:54;5.95;;;2.85;;
3959;SDS011;1994;48.640;8.894;2023-07-09T15:35:23;2.70;;;2.50;;
3959;SDS011;1994;48.640;8.894;2023-07-09T15:37:56;2.50;;;2.30;;
3959;SDS011;1994;48.640;8.894;2023-07-09T15:40:23;3.92;;;3.53;;
3959;SDS011;1994;48.640;8.894;2023-07-09T15:42:57;2.90;;;2.70;;
3959;SDS011;1994;48.640;8.894;2023-07-09T15:45:28;3.30;;;2.95;;
3959;SDS011;1994;48.640;8.894;2023-07-09T15:47:53;2.30;;;2.15;;
3959;SDS011;1994;48.640;8.894;2023-07-09T15:50:20;2.85;;;2.65;;
3959;SDS011;1994;48.640;8.894;2023-07-09T15:52:48;2.78;;;2.50;;
3959;SDS011;1994;48.640;8.894;2023-07-09T15:55:19;2.85;;;2.65;;
3959;SDS011;1994;48.640;8.894;2023-07-09T15:57:51;2.75;;;2.55;;
3959;SDS011;1994;48.640;8.894;2023-07-09T16:00:24;2.30;;;2.20;;
3959;SDS011;1994;48.640;8.894;2023-07-09T16:02:55;2.63;;;2.42;;
3959;SDS011;1994;48.640;8.894;2023-07-09T16:07:51;2.60;;;2.35;;
3959;SDS011;1994;48.640;8.894;2023-07-09T16:10:19;3.08;;;2.80;;